createdAt,value
2019-05-07T00:00:32.774Z,19.82
2019-05-07T00:03:03.433Z,19.82
2019-05-07T00:05:34.498Z,19.84
2019-05-07T00:08:05.602Z,19.87
2019-05-07T00:10:36.754Z,19.88
2019-05-07T00:13:07.832Z,19.90
2019-05-07T00:15:38.839Z,19.91
2019-05-07T00:18:09.925Z,19.91
2019-05-07T00:20:42.350Z,19.91
2019-05-07T00:23:13.574Z,19.91
2019-05-07T00:25:44.822Z,19.91
2019-05-07T00:28:15.854Z,19.91
2019-05-07T00:30:46.926Z,19.91
2019-05-07T00:33:18.031Z,19.91
2019-05-07T00:35:52.948Z,19.88
2019-05-07T00:38:25.144Z,19.89
2019-05-07T00:40:57.904Z,19.88
2019-05-07T00:43:32.223Z,19.89
2019-05-07T00:46:07.728Z,19.90
2019-05-07T00:48:42.243Z,19.91
2019-05-07T00:51:24.119Z,19.91
2019-05-07T00:53:55.252Z,19.90
2019-05-07T00:56:26.294Z,19.89
2019-05-07T00:58:57.719Z,19.90
2019-05-07T01:01:28.877Z,19.89
2019-05-07T01:04:02.464Z,19.89
2019-05-07T01:06:33.240Z,19.89
2019-05-07T01:09:06.026Z,19.89
2019-05-07T01:11:37.152Z,19.87
2019-05-07T01:14:08.224Z,19.86
2019-05-07T01:16:41.898Z,19.86
2019-05-07T01:19:13.247Z,19.85
2019-05-07T01:21:44.365Z,19.85
2019-05-07T01:24:15.351Z,19.84
2019-05-07T01:26:46.399Z,19.83
2019-05-07T01:29:17.363Z,19.82
2019-05-07T01:31:59.251Z,19.83
2019-05-07T01:34:34.537Z,19.80
2019-05-07T01:37:05.643Z,19.78
2019-05-07T01:39:36.826Z,19.73
2019-05-07T01:42:08.021Z,19.69
2019-05-07T01:44:39.018Z,19.68
2019-05-07T01:47:10.222Z,19.65
2019-05-07T01:49:42.169Z,19.62
2019-05-07T01:52:13.548Z,19.58
2019-05-07T01:54:47.382Z,19.57
2019-05-07T01:57:17.371Z,19.55
2019-05-07T01:59:48.429Z,19.55
2019-05-07T02:02:22.911Z,19.56
2019-05-07T02:05:03.213Z,19.58
2019-05-07T02:07:37.948Z,19.59
2019-05-07T02:10:11.949Z,19.60
2019-05-07T02:12:43.128Z,19.62
2019-05-07T02:15:14.192Z,19.64
2019-05-07T02:17:45.331Z,19.66
2019-05-07T02:20:16.295Z,19.67
2019-05-07T02:22:47.409Z,19.66
2019-05-07T02:25:18.531Z,19.65
2019-05-07T02:27:49.599Z,19.67
2019-05-07T02:30:23.638Z,19.66
2019-05-07T02:32:55.302Z,19.67
2019-05-07T02:35:26.367Z,19.69
2019-05-07T02:37:59.146Z,19.69
2019-05-07T02:40:44.175Z,19.69
2019-05-07T02:43:15.341Z,19.71
2019-05-07T02:45:47.920Z,19.67
2019-05-07T02:48:23.756Z,19.68
2019-05-07T02:51:04.182Z,19.68
2019-05-07T02:53:43.579Z,19.68
2019-05-07T02:56:14.616Z,19.68
2019-05-07T02:58:45.857Z,19.68
2019-05-07T03:01:17.001Z,19.67
2019-05-07T03:03:48.213Z,19.69
2019-05-07T03:06:19.388Z,19.72
2019-05-07T03:08:53.248Z,19.75
2019-05-07T03:11:23.162Z,19.77
2019-05-07T03:13:54.363Z,19.78
2019-05-07T03:16:38.673Z,19.79
2019-05-07T03:18:59.460Z,19.80
2019-05-07T03:21:32.888Z,19.82
2019-05-07T03:24:05.821Z,19.83
2019-05-07T03:26:38.455Z,19.84
2019-05-07T03:29:13.092Z,19.86
2019-05-07T03:31:55.654Z,19.87
2019-05-07T03:34:27.725Z,19.83
2019-05-07T03:37:05.600Z,19.82
2019-05-07T03:39:33.772Z,19.82
2019-05-07T03:42:05.094Z,19.84
2019-05-07T03:44:48.657Z,19.85
2019-05-07T03:47:36.452Z,19.87
2019-05-07T03:50:09.130Z,19.87
2019-05-07T03:52:42.880Z,19.88
2019-05-07T03:55:14.438Z,19.89
2019-05-07T03:57:45.870Z,19.89
2019-05-07T04:00:17.282Z,19.89
2019-05-07T04:02:48.432Z,19.89
2019-05-07T04:05:19.546Z,19.91
2019-05-07T04:07:53.708Z,19.94
2019-05-07T04:10:23.485Z,19.96
2019-05-07T04:12:55.177Z,19.99
2019-05-07T04:15:26.184Z,20.01
2019-05-07T04:17:57.353Z,20.04
2019-05-07T04:20:28.445Z,20.06
2019-05-07T04:22:59.671Z,20.09
2019-05-07T04:25:34.607Z,20.11
2019-05-07T04:28:19.183Z,20.14
2019-05-07T04:30:53.196Z,20.16
2019-05-07T04:33:24.912Z,20.15
2019-05-07T04:36:06.735Z,20.14
2019-05-07T04:38:37.828Z,20.17
2019-05-07T04:41:08.854Z,20.18
2019-05-07T04:43:43.191Z,20.17
2019-05-07T04:46:14.404Z,20.18
2019-05-07T04:48:45.541Z,20.20
2019-05-07T04:51:18.229Z,20.20
2019-05-07T04:53:49.319Z,20.21
2019-05-07T04:56:23.885Z,20.24
2019-05-07T04:58:54.030Z,20.26
2019-05-07T05:01:26.729Z,20.29
2019-05-07T05:03:57.687Z,20.31
2019-05-07T05:06:28.760Z,20.36
2019-05-07T05:09:02.768Z,20.39
2019-05-07T05:11:33.754Z,20.42
2019-05-07T05:14:07.803Z,20.44
2019-05-07T05:16:37.811Z,20.47
2019-05-07T05:19:09.078Z,20.45
2019-05-07T05:21:58.353Z,20.46
2019-05-07T05:24:32.979Z,20.45
2019-05-07T05:27:03.882Z,20.41
2019-05-07T05:29:36.178Z,20.38
2019-05-07T05:32:07.144Z,20.37
2019-05-07T05:34:38.236Z,20.38
2019-05-07T05:37:09.309Z,20.33
2019-05-07T05:39:42.633Z,20.31
2019-05-07T05:42:18.564Z,20.32
2019-05-07T05:44:49.628Z,20.36
2019-05-07T05:47:22.191Z,20.33
2019-05-07T05:49:53.494Z,20.32
2019-05-07T05:52:32.748Z,20.32
2019-05-07T05:55:05.594Z,20.32
2019-05-07T05:57:38.409Z,20.34
2019-05-07T06:00:16.939Z,20.38
2019-05-07T06:02:58.652Z,20.48
2019-05-07T06:05:43.541Z,20.65
2019-05-07T06:08:28.625Z,20.77
2019-05-07T06:11:02.262Z,20.85
2019-05-07T06:13:35.090Z,20.96
2019-05-07T06:16:08.099Z,21.03
2019-05-07T06:18:56.979Z,21.13
2019-05-07T06:21:32.410Z,21.24
2019-05-07T06:24:17.143Z,21.30
2019-05-07T06:26:48.307Z,21.37
2019-05-07T06:29:20.190Z,21.45
2019-05-07T06:32:06.002Z,21.45
2019-05-07T06:34:36.917Z,21.55
2019-05-07T06:37:09.006Z,21.58
2019-05-07T06:39:42.164Z,21.65
2019-05-07T06:42:30.032Z,21.74
2019-05-07T06:45:08.598Z,21.81
2019-05-07T06:47:39.798Z,21.84
2019-05-07T06:50:12.494Z,21.85
2019-05-07T06:52:44.865Z,21.90
2019-05-07T06:55:15.898Z,21.99
2019-05-07T06:57:47.036Z,22.10
2019-05-07T07:00:25.510Z,22.29
2019-05-07T07:03:02.017Z,22.57
2019-05-07T07:05:34.836Z,22.88
2019-05-07T07:08:23.120Z,23.27
2019-05-07T07:11:12.858Z,23.76
2019-05-07T07:13:43.758Z,24.20
2019-05-07T07:16:14.982Z,24.64
2019-05-07T07:18:51.812Z,24.98
2019-05-07T07:21:18.829Z,25.47
2019-05-07T07:23:52.268Z,25.89
2019-05-07T07:26:22.749Z,26.20
2019-05-07T07:28:53.845Z,26.54
2019-05-07T07:31:31.905Z,26.82
2019-05-07T07:34:04.343Z,27.05
2019-05-07T07:36:42.243Z,27.31
2019-05-07T07:39:13.092Z,27.57
2019-05-07T07:41:45.832Z,27.80
2019-05-07T07:44:17.135Z,27.88
2019-05-07T07:46:48.307Z,28.01
2019-05-07T07:49:19.376Z,27.76
2019-05-07T07:51:52.398Z,27.55
2019-05-07T07:54:23.348Z,27.35
2019-05-07T07:57:16.261Z,27.39
2019-05-07T07:59:52.957Z,27.52
2019-05-07T08:02:25.933Z,27.14
2019-05-07T08:04:57.235Z,27.29
2019-05-07T08:07:28.428Z,27.11
2019-05-07T08:09:59.893Z,27.13
2019-05-07T08:12:32.667Z,27.13
2019-05-07T08:15:16.670Z,27.11
2019-05-07T08:17:37.791Z,26.95
2019-05-07T08:20:09.066Z,26.92
2019-05-07T08:22:42.237Z,26.94
2019-05-07T08:25:12.952Z,26.87
2019-05-07T08:27:44.240Z,26.77
2019-05-07T08:30:17.168Z,26.71
2019-05-07T08:32:53.005Z,26.70
2019-05-07T08:35:43.486Z,26.64
2019-05-07T08:38:16.453Z,26.60
2019-05-07T08:40:48.928Z,26.54
2019-05-07T08:43:21.866Z,26.54
2019-05-07T08:45:54.833Z,26.39
2019-05-07T08:48:27.400Z,26.22
2019-05-07T08:50:58.614Z,26.24
2019-05-07T08:53:29.657Z,26.05
2019-05-07T08:56:03.312Z,25.98
2019-05-07T08:58:34.458Z,26.00
2019-05-07T09:01:05.697Z,26.02
2019-05-07T09:03:43.149Z,26.15
2019-05-07T09:06:15.018Z,26.27
2019-05-07T09:08:46.163Z,26.34
2019-05-07T09:11:17.313Z,26.36
2019-05-07T09:13:48.385Z,26.24
2019-05-07T09:16:19.528Z,26.19
2019-05-07T09:18:52.502Z,26.23
2019-05-07T09:21:23.529Z,26.24
2019-05-07T09:23:54.583Z,26.21
2019-05-07T09:26:27.293Z,26.25
2019-05-07T09:29:08.837Z,26.36
2019-05-07T09:31:52.559Z,26.42
2019-05-07T09:34:27.721Z,26.41
2019-05-07T09:37:06.582Z,26.41
2019-05-07T09:39:37.825Z,26.45
2019-05-07T09:42:09.033Z,26.62
2019-05-07T09:44:40.152Z,26.70
2019-05-07T09:47:13.195Z,26.80
2019-05-07T09:49:44.304Z,26.93
2019-05-07T09:52:15.437Z,26.91
2019-05-07T09:54:46.987Z,27.09
2019-05-07T09:57:28.266Z,27.17
2019-05-07T09:59:53.124Z,27.27
2019-05-07T10:02:24.923Z,27.30
2019-05-07T10:04:55.937Z,27.33
2019-05-07T10:07:27.087Z,27.40
2019-05-07T10:09:58.174Z,27.47
2019-05-07T10:12:32.832Z,27.54
2019-05-07T10:15:04.158Z,27.56
2019-05-07T10:17:37.047Z,27.47
2019-05-07T10:20:19.160Z,27.48
2019-05-07T10:22:42.860Z,27.68
2019-05-07T10:25:14.104Z,27.74
2019-05-07T10:27:46.254Z,27.73
2019-05-07T10:30:17.807Z,27.82
2019-05-07T10:32:48.970Z,27.93
2019-05-07T10:35:20.188Z,27.77
2019-05-07T10:37:52.831Z,27.80
2019-05-07T10:40:25.106Z,27.81
2019-05-07T10:42:56.248Z,27.84
2019-05-07T10:45:29.102Z,27.87
2019-05-07T10:48:17.791Z,27.85
2019-05-07T10:50:51.722Z,27.80
2019-05-07T10:53:23.069Z,27.78
2019-05-07T10:55:54.154Z,27.70
2019-05-07T10:58:25.122Z,27.46
2019-05-07T11:00:56.699Z,27.35
2019-05-07T11:03:27.935Z,27.33
2019-05-07T11:05:58.934Z,27.34
2019-05-07T11:08:30.051Z,27.26
2019-05-07T11:11:02.980Z,27.17
2019-05-07T11:13:33.899Z,27.06
2019-05-07T11:16:07.909Z,27.04
2019-05-07T11:18:42.533Z,27.01
2019-05-07T11:21:13.556Z,26.97
2019-05-07T11:23:44.700Z,26.82
2019-05-07T11:26:15.713Z,26.94
2019-05-07T11:28:47.019Z,26.89
2019-05-07T11:31:18.165Z,26.94
2019-05-07T11:33:49.222Z,26.97
2019-05-07T11:36:20.260Z,26.99
2019-05-07T11:38:52.708Z,26.95
2019-05-07T11:41:25.516Z,26.88
2019-05-07T11:44:01.775Z,26.84
2019-05-07T11:46:34.737Z,26.75
2019-05-07T11:49:07.437Z,26.69
2019-05-07T11:51:42.897Z,26.67
2019-05-07T11:54:14.430Z,26.64
2019-05-07T11:56:45.439Z,26.56
2019-05-07T11:59:16.514Z,26.63
2019-05-07T12:01:49.107Z,26.64
2019-05-07T12:04:27.869Z,26.66
2019-05-07T12:06:58.049Z,26.62
2019-05-07T12:09:29.087Z,26.60
2019-05-07T12:12:02.319Z,26.61
2019-05-07T12:14:34.981Z,26.64
2019-05-07T12:17:05.882Z,26.66
2019-05-07T12:19:36.916Z,26.69
2019-05-07T12:22:08.025Z,26.69
2019-05-07T12:24:39.315Z,26.69
2019-05-07T12:27:11.937Z,26.70
2019-05-07T12:29:43.140Z,26.73
2019-05-07T12:32:18.755Z,26.75
2019-05-07T12:35:02.241Z,26.77
2019-05-07T12:37:37.086Z,26.77
2019-05-07T12:40:08.057Z,26.77
2019-05-07T12:42:39.092Z,26.76
2019-05-07T12:45:12.508Z,26.77
2019-05-07T12:47:43.055Z,26.78
2019-05-07T12:50:14.109Z,26.76
2019-05-07T12:52:54.566Z,26.77
2019-05-07T12:55:33.409Z,26.81
2019-05-07T12:58:05.587Z,26.85
2019-05-07T13:00:44.510Z,26.89
2019-05-07T13:03:29.050Z,26.93
2019-05-07T13:06:02.367Z,26.93
2019-05-07T13:08:33.110Z,26.92
2019-05-07T13:11:05.417Z,26.94
2019-05-07T13:13:36.504Z,26.97
2019-05-07T13:16:07.614Z,26.94
2019-05-07T13:18:38.701Z,26.90
2019-05-07T13:21:11.795Z,26.89
2019-05-07T13:23:42.683Z,26.87
2019-05-07T13:26:13.675Z,26.88
2019-05-07T13:28:45.731Z,26.92
2019-05-07T13:31:17.781Z,26.97
2019-05-07T13:33:49.755Z,27.01
2019-05-07T13:36:22.094Z,27.03
2019-05-07T13:39:11.206Z,27.07
2019-05-07T13:41:43.979Z,27.12
2019-05-07T13:44:26.079Z,27.13
2019-05-07T13:47:15.499Z,27.13
2019-05-07T13:49:47.225Z,27.15
2019-05-07T13:52:18.473Z,27.13
2019-05-07T13:54:52.618Z,27.15
2019-05-07T13:57:23.782Z,27.15
2019-05-07T13:59:54.941Z,27.13
2019-05-07T14:02:27.638Z,27.12
2019-05-07T14:04:58.840Z,27.10
2019-05-07T14:07:32.658Z,27.08
2019-05-07T14:10:04.179Z,27.04
2019-05-07T14:12:35.406Z,27.03
2019-05-07T14:15:07.066Z,27.02
2019-05-07T14:17:38.275Z,26.98
2019-05-07T14:20:12.958Z,26.98
2019-05-07T14:22:43.842Z,26.94
2019-05-07T14:25:15.182Z,26.89
2019-05-07T14:27:46.330Z,26.88
2019-05-07T14:30:17.403Z,26.88
2019-05-07T14:32:53.558Z,26.81
2019-05-07T14:35:26.389Z,26.73
2019-05-07T14:38:05.535Z,26.70
2019-05-07T14:40:36.544Z,26.67
2019-05-07T14:43:09.232Z,26.66
2019-05-07T14:45:42.196Z,26.62
2019-05-07T14:48:13.351Z,26.57
2019-05-07T14:50:45.017Z,26.55
2019-05-07T14:53:16.806Z,26.53
2019-05-07T14:55:48.266Z,26.53
2019-05-07T14:58:21.539Z,26.50
2019-05-07T15:00:52.876Z,26.46
2019-05-07T15:03:24.193Z,26.41
2019-05-07T15:05:55.655Z,26.35
2019-05-07T15:08:27.318Z,26.32
2019-05-07T15:10:59.086Z,26.31
2019-05-07T15:13:32.831Z,26.32
2019-05-07T15:16:07.297Z,26.29
2019-05-07T15:21:32.138Z,26.24
2019-05-07T15:24:06.044Z,26.22
2019-05-07T15:26:37.897Z,26.19
2019-05-07T15:29:12.068Z,26.14
2019-05-07T15:32:03.192Z,26.03
2019-05-07T15:34:34.005Z,25.93
2019-05-07T15:37:08.906Z,25.87
2019-05-07T15:39:44.531Z,25.84
2019-05-07T15:42:16.652Z,25.83
2019-05-07T15:44:48.029Z,25.83
2019-05-07T15:47:26.623Z,25.80
2019-05-07T15:49:58.262Z,25.71
2019-05-07T15:52:58.389Z,25.68
2019-05-07T15:55:26.163Z,25.65
2019-05-07T15:57:57.853Z,25.63
2019-05-07T16:00:33.317Z,25.61
2019-05-07T16:03:12.160Z,25.56
2019-05-07T16:05:45.223Z,25.46
2019-05-07T16:08:22.656Z,25.41
2019-05-07T16:10:56.006Z,25.29
2019-05-07T16:13:35.052Z,25.19
2019-05-07T16:16:06.796Z,25.08
2019-05-07T16:18:42.153Z,24.95
2019-05-07T16:21:19.081Z,24.95
2019-05-07T16:23:54.864Z,24.92
2019-05-07T16:26:26.150Z,24.81
2019-05-07T16:28:57.406Z,24.56
2019-05-07T16:31:28.513Z,24.33
2019-05-07T16:33:59.563Z,24.07
2019-05-07T16:36:32.633Z,23.84
2019-05-07T16:39:04.230Z,23.66
2019-05-07T16:41:37.095Z,23.50
2019-05-07T16:44:08.031Z,23.35
2019-05-07T16:46:39.220Z,23.19
2019-05-07T16:49:12.097Z,23.09
2019-05-07T16:51:44.755Z,22.95
2019-05-07T16:54:15.957Z,22.82
2019-05-07T16:57:05.467Z,22.72
2019-05-07T16:59:36.475Z,22.63
2019-05-07T17:02:09.110Z,22.56
2019-05-07T17:04:42.520Z,22.49
2019-05-07T17:07:15.488Z,22.41
2019-05-07T17:09:46.565Z,22.35
2019-05-07T17:12:19.282Z,22.28
2019-05-07T17:14:51.804Z,22.23
2019-05-07T17:17:23.022Z,22.14
2019-05-07T17:19:54.026Z,22.07
2019-05-07T17:22:25.160Z,22.02
2019-05-07T17:24:58.234Z,21.99
2019-05-07T17:27:29.409Z,21.96
2019-05-07T17:30:02.968Z,21.93
2019-05-07T17:32:34.617Z,21.91
2019-05-07T17:35:05.562Z,21.87
2019-05-07T17:37:36.552Z,21.84
2019-05-07T17:40:08.046Z,21.79
2019-05-07T17:42:39.187Z,21.73
2019-05-07T17:45:12.187Z,21.68
2019-05-07T17:47:43.056Z,21.65
2019-05-07T17:50:15.712Z,21.60
2019-05-07T17:52:46.809Z,21.60
2019-05-07T17:55:17.750Z,21.61
2019-05-07T17:57:48.885Z,21.61
2019-05-07T18:00:22.097Z,21.60
2019-05-07T18:02:54.849Z,21.58
2019-05-07T18:05:25.900Z,21.57
2019-05-07T18:07:57.133Z,21.54
2019-05-07T18:10:28.202Z,21.54
2019-05-07T18:12:59.257Z,21.55
2019-05-07T18:15:32.262Z,21.53
2019-05-07T18:18:07.645Z,21.50
2019-05-07T18:20:38.199Z,21.45
2019-05-07T18:23:13.345Z,21.33
2019-05-07T18:25:42.857Z,21.31
2019-05-07T18:28:16.078Z,21.28
2019-05-07T18:30:46.991Z,21.25
2019-05-07T18:33:21.989Z,21.20
2019-05-07T18:35:52.737Z,21.09
2019-05-07T18:38:23.942Z,21.16
2019-05-07T18:40:55.047Z,21.13
2019-05-07T18:43:26.269Z,21.02
2019-05-07T18:45:57.334Z,21.05
2019-05-07T18:48:28.443Z,21.01
2019-05-07T18:50:59.559Z,20.93
2019-05-07T18:53:31.784Z,20.93
2019-05-07T18:56:02.953Z,20.90
2019-05-07T18:58:34.157Z,20.85
2019-05-07T19:01:09.799Z,20.82
2019-05-07T19:03:41.985Z,20.80
2019-05-07T19:06:13.567Z,20.76
2019-05-07T19:08:44.741Z,20.75
2019-05-07T19:11:15.768Z,20.75
2019-05-07T19:13:46.721Z,20.73
2019-05-07T19:16:17.735Z,20.73
2019-05-07T19:18:48.923Z,20.76
2019-05-07T19:21:22.218Z,20.76
2019-05-07T19:23:53.083Z,20.79
2019-05-07T19:26:24.417Z,20.82
2019-05-07T19:28:55.493Z,20.82
2019-05-07T19:31:26.606Z,20.83
2019-05-07T19:33:57.966Z,20.84
2019-05-07T19:36:28.887Z,20.81
2019-05-07T19:39:01.979Z,20.81
2019-05-07T19:41:34.272Z,20.78
2019-05-07T19:44:05.385Z,20.75
2019-05-07T19:46:37.452Z,20.72
2019-05-07T19:49:08.576Z,20.66
2019-05-07T19:51:39.603Z,20.66
2019-05-07T19:54:10.784Z,20.64
2019-05-07T19:56:43.203Z,20.61
2019-05-07T19:59:14.278Z,20.57
2019-05-07T20:01:46.999Z,20.55
2019-05-07T20:04:18.088Z,20.55
2019-05-07T20:06:49.052Z,20.51
2019-05-07T20:09:21.718Z,20.48
2019-05-07T20:11:52.746Z,20.47
2019-05-07T20:14:23.947Z,20.45
2019-05-07T20:16:55.009Z,20.43
2019-05-07T20:19:25.975Z,20.41
2019-05-07T20:21:57.044Z,20.39
2019-05-07T20:24:28.162Z,20.39
2019-05-07T20:26:59.101Z,20.37
2019-05-07T20:29:32.157Z,20.34
2019-05-07T20:32:03.223Z,20.31
2019-05-07T20:34:34.228Z,20.30
2019-05-07T20:37:05.286Z,20.28
2019-05-07T20:39:36.328Z,20.26
2019-05-07T20:42:07.393Z,20.23
2019-05-07T20:44:42.616Z,20.23
2019-05-07T20:47:14.943Z,20.22
2019-05-07T20:49:45.982Z,20.20
2019-05-07T20:52:17.058Z,20.18
2019-05-07T20:54:59.599Z,20.20
2019-05-07T20:57:35.160Z,20.20
2019-05-07T21:00:07.155Z,20.19
2019-05-07T21:02:47.201Z,20.12
2019-05-07T21:05:11.539Z,20.14
2019-05-07T21:07:42.619Z,20.13
2019-05-07T21:10:13.574Z,20.08
2019-05-07T21:12:44.662Z,20.09
2019-05-07T21:15:15.757Z,20.07
2019-05-07T21:17:46.972Z,20.07
2019-05-07T21:20:18.048Z,20.05
2019-05-07T21:22:49.222Z,20.04
2019-05-07T21:25:22.585Z,20.02
2019-05-07T21:27:53.240Z,19.99
2019-05-07T21:30:24.337Z,19.96
2019-05-07T21:32:55.358Z,19.96
2019-05-07T21:35:26.561Z,19.94
2019-05-07T21:37:57.609Z,19.94
2019-05-07T21:40:31.925Z,19.91
2019-05-07T21:43:02.596Z,19.89
2019-05-07T21:45:33.646Z,19.89
2019-05-07T21:48:04.687Z,19.86
2019-05-07T21:50:35.811Z,19.84
2019-05-07T21:53:22.723Z,19.82
2019-05-07T21:56:06.980Z,19.78
2019-05-07T21:58:46.492Z,19.75
2019-05-07T22:01:24.727Z,19.71
2019-05-07T22:03:56.923Z,19.72
2019-05-07T22:06:27.967Z,19.74
2019-05-07T22:08:58.948Z,19.74
2019-05-07T22:11:32.139Z,19.74
2019-05-07T22:14:02.760Z,19.74
2019-05-07T22:16:33.798Z,19.72
2019-05-07T22:19:05.192Z,19.69
2019-05-07T22:21:36.278Z,19.66
2019-05-07T22:24:07.427Z,19.66
2019-05-07T22:26:38.386Z,19.65
2019-05-07T22:29:09.415Z,19.66
2019-05-07T22:31:44.107Z,19.64
2019-05-07T22:34:22.407Z,19.64
2019-05-07T22:36:54.968Z,19.60
2019-05-07T22:39:36.908Z,19.58
2019-05-07T22:42:11.742Z,19.56
2019-05-07T22:44:42.613Z,19.52
2019-05-07T22:47:22.781Z,19.49
2019-05-07T22:49:53.606Z,19.47
2019-05-07T22:52:25.056Z,19.45
2019-05-07T22:54:56.116Z,19.44
2019-05-07T22:57:32.632Z,19.45
2019-05-07T23:00:07.300Z,19.44
2019-05-07T23:02:39.847Z,19.43
2019-05-07T23:05:12.204Z,19.44
2019-05-07T23:07:44.071Z,19.45
2019-05-07T23:10:15.204Z,19.46
2019-05-07T23:12:46.318Z,19.47
2019-05-07T23:15:17.408Z,19.47
2019-05-07T23:17:51.298Z,19.47
2019-05-07T23:20:24.418Z,19.44
2019-05-07T23:22:55.239Z,19.41
2019-05-07T23:25:26.242Z,19.35
2019-05-07T23:27:57.262Z,19.29
2019-05-07T23:30:28.373Z,19.24
2019-05-07T23:32:59.425Z,19.23
2019-05-07T23:35:32.747Z,19.30
2019-05-07T23:38:03.301Z,19.33
2019-05-07T23:40:45.024Z,19.37
2019-05-07T23:43:17.699Z,19.37
2019-05-07T23:45:48.626Z,19.41
2019-05-07T23:48:19.725Z,19.43
2019-05-07T23:50:52.537Z,19.46
2019-05-07T23:53:23.753Z,19.47
2019-05-07T23:55:54.715Z,19.48
2019-05-07T23:58:25.897Z,19.50
